sensor_id;sensor_type;location;lat;lon;timestamp;pressure;altitude;pressure_sealevel;temperature;humidity
8280;BME280;8335;42.646;23.380;2023-06-22T00:00:00;146341.63;;;19.33;89.15
8280;BME280;8335;42.646;23.380;2023-06-22T00:02:33;146354.16;;;19.38;89.86
8280;BME280;8335;42.646;23.380;2023-06-22T00:05:00;146334.16;;;19.30;89.96
8280;BME280;8335;42.646;23.380;2023-06-22T00:07:27;146326.59;;;19.27;90.16
8280;BME280;8335;42.646;23.380;2023-06-22T00:09:54;146336.66;;;19.31;90.70
8280;BME280;8335;42.646;23.380;2023-06-22T00:12:20;146350.41;;;19.36;90.46
8280;BME280;8335;42.646;23.380;2023-06-22T00:14:47;146337.88;;;19.31;91.38
8280;BME280;8335;42.646;23.380;2023-06-22T00:17:15;146341.63;;;19.33;91.74
8280;BME280;8335;42.646;23.380;2023-06-22T00:19:42;146334.16;;;19.30;91.90
8280;BME280;8335;42.646;23.380;2023-06-22T00:22:09;146330.34;;;19.28;92.33
8280;BME280;8335;42.646;23.380;2023-06-22T00:24:35;146324.13;;;19.25;92.80
8280;BME280;8335;42.646;23.380;2023-06-22T00:27:03;146314.09;;;19.21;92.59
8280;BME280;8335;42.646;23.380;2023-06-22T00:29:30;146291.56;;;19.12;93.33
8280;BME280;8335;42.646;23.380;2023-06-22T00:31:57;146290.31;;;19.12;93.61
8280;BME280;8335;42.646;23.380;2023-06-22T00:34:25;146307.84;;;19.19;93.36
8280;BME280;8335;42.646;23.380;2023-06-22T00:36:52;146295.31;;;19.14;91.88
8280;BME280;8335;42.646;23.380;2023-06-22T00:39:19;146292.81;;;19.13;90.64
8280;BME280;8335;42.646;23.380;2023-06-22T00:41:45;146266.56;;;19.02;90.17
8280;BME280;8335;42.646;23.380;2023-06-22T00:44:12;146264.06;;;19.01;90.13
8280;BME280;8335;42.646;23.380;2023-06-22T00:46:39;146262.81;;;19.01;89.42
8280;BME280;8335;42.646;23.380;2023-06-22T00:49:06;146264.06;;;19.01;89.56
8280;BME280;8335;42.646;23.380;2023-06-22T00:51:34;146227.78;;;18.86;92.17
8280;BME280;8335;42.646;23.380;2023-06-22T00:54:03;146167.66;;;18.62;93.90
8280;BME280;8335;42.646;23.380;2023-06-22T00:56:31;146161.44;;;18.59;94.82
8280;BME280;8335;42.646;23.380;2023-06-22T00:58:59;146152.66;;;18.56;95.92
8280;BME280;8335;42.646;23.380;2023-06-22T01:01:29;146147.66;;;18.54;96.48
8280;BME280;8335;42.646;23.380;2023-06-22T01:03:55;146147.66;;;18.54;96.56
8280;BME280;8335;42.646;23.380;2023-06-22T01:06:33;146141.44;;;18.51;96.78
8280;BME280;8335;42.646;23.380;2023-06-22T01:09:12;146147.66;;;18.54;96.86
8280;BME280;8335;42.646;23.380;2023-06-22T01:11:44;146148.91;;;18.54;97.14
8280;BME280;8335;42.646;23.380;2023-06-22T01:14:15;146140.19;;;18.51;97.36
8280;BME280;8335;42.646;23.380;2023-06-22T01:16:48;146158.94;;;18.58;97.73
8280;BME280;8335;42.646;23.380;2023-06-22T01:19:38;146165.16;;;18.61;97.73
8280;BME280;8335;42.646;23.380;2023-06-22T01:22:09;146172.66;;;18.64;97.91
8280;BME280;8335;42.646;23.380;2023-06-22T01:24:48;146151.41;;;18.55;98.67
8280;BME280;8335;42.646;23.380;2023-06-22T01:27:28;146185.22;;;18.69;99.04
8280;BME280;8335;42.646;23.380;2023-06-22T01:30:00;146186.47;;;18.69;99.16
8280;BME280;8335;42.646;23.380;2023-06-22T01:32:32;146195.25;;;18.73;99.56
8280;BME280;8335;42.646;23.380;2023-06-22T01:35:01;146199.00;;;18.75;99.82
8280;BME280;8335;42.646;23.380;2023-06-22T01:37:28;146214.00;;;18.81;99.22
8280;BME280;8335;42.646;23.380;2023-06-22T01:39:58;146202.75;;;18.76;99.45
8280;BME280;8335;42.646;23.380;2023-06-22T01:42:25;146204.00;;;18.77;99.25
8280;BME280;8335;42.646;23.380;2023-06-22T01:44:53;146196.50;;;18.74;99.34
8280;BME280;8335;42.646;23.380;2023-06-22T01:47:21;146181.47;;;18.67;99.64
8280;BME280;8335;42.646;23.380;2023-06-22T01:49:49;146171.41;;;18.63;100.00
8280;BME280;8335;42.646;23.380;2023-06-22T01:52:18;146163.94;;;18.60;100.00
8280;BME280;8335;42.646;23.380;2023-06-22T01:54:46;146151.41;;;18.55;100.00
8280;BME280;8335;42.646;23.380;2023-06-22T01:57:13;146153.91;;;18.56;100.00
8280;BME280;8335;42.646;23.380;2023-06-22T01:59:46;146146.41;;;18.53;100.00
8280;BME280;8335;42.646;23.380;2023-06-22T02:02:16;146143.91;;;18.52;100.00
8280;BME280;8335;42.646;23.380;2023-06-22T02:04:50;146128.91;;;18.46;100.00
8280;BME280;8335;42.646;23.380;2023-06-22T02:07:18;146116.38;;;18.41;100.00
8280;BME280;8335;42.646;23.380;2023-06-22T02:09:49;146091.38;;;18.31;100.00
8280;BME280;8335;42.646;23.380;2023-06-22T02:12:20;146091.38;;;18.31;100.00
8280;BME280;8335;42.646;23.380;2023-06-22T02:14:48;146087.66;;;18.29;100.00
8280;BME280;8335;42.646;23.380;2023-06-22T02:17:17;146097.63;;;18.33;100.00
8280;BME280;8335;42.646;23.380;2023-06-22T02:19:44;146102.63;;;18.35;100.00
8280;BME280;8335;42.646;23.380;2023-06-22T02:22:12;146103.88;;;18.36;100.00
8280;BME280;8335;42.646;23.380;2023-06-22T02:24:39;146113.88;;;18.40;100.00
8280;BME280;8335;42.646;23.380;2023-06-22T02:27:06;146103.88;;;18.36;100.00
8280;BME280;8335;42.646;23.380;2023-06-22T02:29:33;146098.88;;;18.34;99.43
8280;BME280;8335;42.646;23.380;2023-06-22T02:32:00;146091.38;;;18.31;99.85
8280;BME280;8335;42.646;23.380;2023-06-22T02:34:27;146083.84;;;18.28;100.00
8280;BME280;8335;42.646;23.380;2023-06-22T02:36:53;146085.09;;;18.28;100.00
8280;BME280;8335;42.646;23.380;2023-06-22T02:39:23;146081.38;;;18.27;100.00
8280;BME280;8335;42.646;23.380;2023-06-22T02:41:50;146095.13;;;18.32;100.00
8280;BME280;8335;42.646;23.380;2023-06-22T02:44:18;146087.66;;;18.29;100.00
8280;BME280;8335;42.646;23.380;2023-06-22T02:46:45;146053.88;;;18.15;100.00
8280;BME280;8335;42.646;23.380;2023-06-22T02:49:11;146068.91;;;18.22;100.00
8280;BME280;8335;42.646;23.380;2023-06-22T02:51:41;146083.84;;;18.28;100.00
8280;BME280;8335;42.646;23.380;2023-06-22T02:54:08;146086.34;;;18.29;100.00
8280;BME280;8335;42.646;23.380;2023-06-22T02:56:36;146076.38;;;18.25;100.00
8280;BME280;8335;42.646;23.380;2023-06-22T02:59:06;146085.09;;;18.28;100.00
8280;BME280;8335;42.646;23.380;2023-06-22T03:01:33;146082.63;;;18.27;100.00
8280;BME280;8335;42.646;23.380;2023-06-22T03:04:06;146077.63;;;18.25;100.00
8280;BME280;8335;42.646;23.380;2023-06-22T03:06:33;146100.13;;;18.34;100.00
8280;BME280;8335;42.646;23.380;2023-06-22T03:09:01;146113.88;;;18.40;100.00
8280;BME280;8335;42.646;23.380;2023-06-22T03:11:29;146142.69;;;18.52;100.00
8280;BME280;8335;42.646;23.380;2023-06-22T03:13:57;146188.97;;;18.70;98.30
8280;BME280;8335;42.646;23.380;2023-06-22T03:16:24;146206.47;;;18.78;96.87
8280;BME280;8335;42.646;23.380;2023-06-22T03:18:51;146242.75;;;18.92;95.53
8280;BME280;8335;42.646;23.380;2023-06-22T03:21:19;146271.56;;;19.04;95.20
8280;BME280;8335;42.646;23.380;2023-06-22T03:23:46;146309.09;;;19.19;94.47
8280;BME280;8335;42.646;23.380;2023-06-22T03:26:12;146364.16;;;19.42;94.15
8280;BME280;8335;42.646;23.380;2023-06-22T03:28:39;146438.09;;;19.72;92.16
8280;BME280;8335;42.646;23.380;2023-06-22T03:31:08;146506.91;;;20.00;90.85
8280;BME280;8335;42.646;23.380;2023-06-22T03:33:34;146545.75;;;20.16;89.86
8280;BME280;8335;42.646;23.380;2023-06-22T03:36:02;146602.09;;;20.39;88.49
8280;BME280;8335;42.646;23.380;2023-06-22T03:38:29;146677.28;;;20.69;86.49
8280;BME280;8335;42.646;23.380;2023-06-22T03:40:56;146752.44;;;21.00;84.73
8280;BME280;8335;42.646;23.380;2023-06-22T03:43:23;146825.22;;;21.29;82.36
8280;BME280;8335;42.646;23.380;2023-06-22T03:45:49;146813.88;;;21.25;80.87
8280;BME280;8335;42.646;23.380;2023-06-22T03:48:18;146986.91;;;21.95;79.82
8280;BME280;8335;42.646;23.380;2023-06-22T03:50:44;147116.13;;;22.47;77.62
8280;BME280;8335;42.646;23.380;2023-06-22T03:53:11;147236.59;;;22.96;75.11
8280;BME280;8335;42.646;23.380;2023-06-22T03:55:48;147359.59;;;23.46;72.48
8280;BME280;8335;42.646;23.380;2023-06-22T03:58:15;147456.28;;;23.85;70.46
8280;BME280;8335;42.646;23.380;2023-06-22T04:00:44;147545.41;;;24.22;69.38
8280;BME280;8335;42.646;23.380;2023-06-22T04:03:11;147634.69;;;24.58;68.30
8280;BME280;8335;42.646;23.380;2023-06-22T04:05:39;147721.31;;;24.93;66.47
8280;BME280;8335;42.646;23.380;2023-06-22T04:08:06;147787.97;;;25.20;64.41
8280;BME280;8335;42.646;23.380;2023-06-22T04:10:33;147804.31;;;25.27;63.46
8280;BME280;8335;42.646;23.380;2023-06-22T04:13:00;147789.22;;;25.20;64.56
8280;BME280;8335;42.646;23.380;2023-06-22T04:15:27;147764.09;;;25.10;64.53
8280;BME280;8335;42.646;23.380;2023-06-22T04:17:54;147806.81;;;25.28;64.42
8280;BME280;8335;42.646;23.380;2023-06-22T04:20:22;147881.00;;;25.58;63.06
8280;BME280;8335;42.646;23.380;2023-06-22T04:22:52;147994.16;;;26.03;62.06
8280;BME280;8335;42.646;23.380;2023-06-22T04:25:19;148086.00;;;26.41;60.26
8280;BME280;8335;42.646;23.380;2023-06-22T04:27:46;148201.72;;;26.87;58.51
8280;BME280;8335;42.646;23.380;2023-06-22T04:30:13;148313.75;;;27.33;56.84
8280;BME280;8335;42.646;23.380;2023-06-22T04:32:42;148382.97;;;27.61;55.93
8280;BME280;8335;42.646;23.380;2023-06-22T04:35:09;148462.28;;;27.93;54.13
8280;BME280;8335;42.646;23.380;2023-06-22T04:37:36;148545.38;;;28.27;53.19
8280;BME280;8335;42.646;23.380;2023-06-22T04:40:06;148607.16;;;28.51;51.84
8280;BME280;8335;42.646;23.380;2023-06-22T04:42:34;148592.03;;;28.45;50.26
8280;BME280;8335;42.646;23.380;2023-06-22T04:45:01;148667.59;;;28.76;50.02
8280;BME280;8335;42.646;23.380;2023-06-22T04:47:27;148662.56;;;28.74;49.47
8280;BME280;8335;42.646;23.380;2023-06-22T04:49:54;148636.09;;;28.63;50.70
8280;BME280;8335;42.646;23.380;2023-06-22T04:52:21;148666.34;;;28.75;50.12
8280;BME280;8335;42.646;23.380;2023-06-22T04:54:50;148706.69;;;28.92;50.18
8280;BME280;8335;42.646;23.380;2023-06-22T04:57:22;148794.88;;;29.27;48.98
8280;BME280;8335;42.646;23.380;2023-06-22T04:59:58;148918.41;;;29.77;48.26
8280;BME280;8335;42.646;23.380;2023-06-22T05:02:41;149077.28;;;30.41;46.67
8280;BME280;8335;42.646;23.380;2023-06-22T05:05:08;149214.78;;;30.97;44.48
8280;BME280;8335;42.646;23.380;2023-06-22T05:07:39;149101.25;;;30.51;44.59
8280;BME280;8335;42.646;23.380;2023-06-22T05:10:08;149306.88;;;31.34;43.42
8280;BME280;8335;42.646;23.380;2023-06-22T05:12:38;149443.22;;;31.89;41.62
8280;BME280;8335;42.646;23.380;2023-06-22T05:15:06;149570.72;;;32.41;40.91
8280;BME280;8335;42.646;23.380;2023-06-22T05:17:34;149731.09;;;33.05;39.69
8280;BME280;8335;42.646;23.380;2023-06-22T05:20:01;149868.81;;;33.61;38.84
8280;BME280;8335;42.646;23.380;2023-06-22T05:22:28;149977.50;;;34.05;37.53
8280;BME280;8335;42.646;23.380;2023-06-22T05:24:55;150058.41;;;34.37;36.38
8280;BME280;8335;42.646;23.380;2023-06-22T05:27:22;149951.00;;;33.94;36.05
8280;BME280;8335;42.646;23.380;2023-06-22T05:29:50;150009.09;;;34.17;35.57
8280;BME280;8335;42.646;23.380;2023-06-22T05:32:17;150101.41;;;34.55;35.32
8280;BME280;8335;42.646;23.380;2023-06-22T05:34:44;150096.34;;;34.53;35.61
8280;BME280;8335;42.646;23.380;2023-06-22T05:37:10;150095.09;;;34.52;35.60
8280;BME280;8335;42.646;23.380;2023-06-22T05:39:38;149957.28;;;33.97;36.40
8280;BME280;8335;42.646;23.380;2023-06-22T05:42:05;149972.47;;;34.03;36.17
8280;BME280;8335;42.646;23.380;2023-06-22T05:44:32;150097.59;;;34.53;35.80
8280;BME280;8335;42.646;23.380;2023-06-22T05:47:00;150090.00;;;34.50;35.68
8280;BME280;8335;42.646;23.380;2023-06-22T05:49:28;150181.03;;;34.87;34.99
8280;BME280;8335;42.646;23.380;2023-06-22T05:51:58;150191.16;;;34.91;34.74
8280;BME280;8335;42.646;23.380;2023-06-22T05:54:25;150071.03;;;34.42;35.62
8280;BME280;8335;42.646;23.380;2023-06-22T05:56:52;150208.88;;;34.98;35.49
8280;BME280;8335;42.646;23.380;2023-06-22T05:59:19;150312.56;;;35.40;34.29
8280;BME280;8335;42.646;23.380;2023-06-22T06:01:45;150470.72;;;36.03;33.43
8280;BME280;8335;42.646;23.380;2023-06-22T06:04:16;150608.69;;;36.59;32.88
8280;BME280;8335;42.646;23.380;2023-06-22T06:06:43;150725.09;;;37.06;31.63
8280;BME280;8335;42.646;23.380;2023-06-22T06:09:10;150817.53;;;37.43;30.92
8280;BME280;8335;42.646;23.380;2023-06-22T06:11:38;150811.22;;;37.40;30.90
8280;BME280;8335;42.646;23.380;2023-06-22T06:14:04;150860.59;;;37.60;30.92
8280;BME280;8335;42.646;23.380;2023-06-22T06:16:31;150898.56;;;37.76;30.90
8280;BME280;8335;42.646;23.380;2023-06-22T06:18:58;150918.88;;;37.84;31.05
8280;BME280;8335;42.646;23.380;2023-06-22T06:21:26;150983.47;;;38.10;30.80
8280;BME280;8335;42.646;23.380;2023-06-22T06:23:53;151050.63;;;38.37;30.64
8280;BME280;8335;42.646;23.380;2023-06-22T06:26:20;150960.63;;;38.00;31.70
8280;BME280;8335;42.646;23.380;2023-06-22T06:28:53;150991.03;;;38.13;31.73
8280;BME280;8335;42.646;23.380;2023-06-22T06:31:20;151074.69;;;38.46;31.66
8280;BME280;8335;42.646;23.380;2023-06-22T06:33:46;151036.69;;;38.31;31.27
8280;BME280;8335;42.646;23.380;2023-06-22T06:36:13;150955.59;;;37.98;31.76
8280;BME280;8335;42.646;23.380;2023-06-22T06:38:42;151041.75;;;38.33;30.56
8280;BME280;8335;42.646;23.380;2023-06-22T06:41:08;151124.09;;;38.66;29.61
8280;BME280;8335;42.646;23.380;2023-06-22T06:43:35;151155.75;;;38.79;29.40
8280;BME280;8335;42.646;23.380;2023-06-22T06:46:02;151195.06;;;38.95;29.44
8280;BME280;8335;42.646;23.380;2023-06-22T06:48:29;151224.19;;;39.06;29.38
8280;BME280;8335;42.646;23.380;2023-06-22T06:50:56;151094.94;;;38.54;27.76
8280;BME280;8335;42.646;23.380;2023-06-22T06:53:23;150854.25;;;37.58;29.40
8280;BME280;8335;42.646;23.380;2023-06-22T06:55:51;150712.44;;;37.01;29.33
8280;BME280;8335;42.646;23.380;2023-06-22T06:58:18;150736.50;;;37.10;30.17
8280;BME280;8335;42.646;23.380;2023-06-22T07:00:44;150892.25;;;37.73;29.08
8280;BME280;8335;42.646;23.380;2023-06-22T07:03:11;151056.94;;;38.39;28.54
8280;BME280;8335;42.646;23.380;2023-06-22T07:05:38;151041.75;;;38.33;28.58
8280;BME280;8335;42.646;23.380;2023-06-22T07:08:05;150974.56;;;38.06;29.21
8280;BME280;8335;42.646;23.380;2023-06-22T07:10:31;150884.63;;;37.70;29.72
8280;BME280;8335;42.646;23.380;2023-06-22T07:12:59;150799.81;;;37.36;30.31
8280;BME280;8335;42.646;23.380;2023-06-22T07:15:26;150715.00;;;37.02;30.91
8280;BME280;8335;42.646;23.380;2023-06-22T07:17:53;150652.94;;;36.77;32.33
8280;BME280;8335;42.646;23.380;2023-06-22T07:20:20;150555.53;;;36.37;33.60
8280;BME280;8335;42.646;23.380;2023-06-22T07:22:47;150563.09;;;36.41;33.41
8280;BME280;8335;42.646;23.380;2023-06-22T07:25:13;150675.75;;;36.86;33.11
8280;BME280;8335;42.646;23.380;2023-06-22T07:27:44;150784.63;;;37.30;32.03
8280;BME280;8335;42.646;23.380;2023-06-22T07:30:13;150898.56;;;37.76;31.54
8280;BME280;8335;42.646;23.380;2023-06-22T07:32:40;150940.38;;;37.92;30.85
8280;BME280;8335;42.646;23.380;2023-06-22T07:35:07;151054.44;;;38.38;31.11
8280;BME280;8335;42.646;23.380;2023-06-22T07:37:34;151170.97;;;38.85;30.40
8280;BME280;8335;42.646;23.380;2023-06-22T07:40:01;151271.13;;;39.25;29.16
8280;BME280;8335;42.646;23.380;2023-06-22T07:42:31;151383.91;;;39.71;28.65
8280;BME280;8335;42.646;23.380;2023-06-22T07:44:59;151505.66;;;40.20;28.46
8280;BME280;8335;42.646;23.380;2023-06-22T07:47:27;151561.41;;;40.42;28.22
8280;BME280;8335;42.646;23.380;2023-06-22T07:49:54;151462.56;;;40.02;28.09
8280;BME280;8335;42.646;23.380;2023-06-22T07:52:23;151404.19;;;39.79;28.21
8280;BME280;8335;42.646;23.380;2023-06-22T07:54:51;151401.66;;;39.78;28.06
8280;BME280;8335;42.646;23.380;2023-06-22T07:57:17;151130.41;;;38.69;29.24
8280;BME280;8335;42.646;23.380;2023-06-22T07:59:44;150868.19;;;37.63;30.38
8280;BME280;8335;42.646;23.380;2023-06-22T08:02:11;150904.88;;;37.78;30.72
8280;BME280;8335;42.646;23.380;2023-06-22T08:04:39;151063.25;;;38.42;30.00
8280;BME280;8335;42.646;23.380;2023-06-22T08:07:06;151264.78;;;39.23;29.08
8280;BME280;8335;42.646;23.380;2023-06-22T08:09:33;151301.53;;;39.38;28.56
8280;BME280;8335;42.646;23.380;2023-06-22T08:12:00;151311.66;;;39.42;28.17
8280;BME280;8335;42.646;23.380;2023-06-22T08:14:27;151339.53;;;39.53;28.29
8280;BME280;8335;42.646;23.380;2023-06-22T08:16:54;151297.69;;;39.36;28.29
8280;BME280;8335;42.646;23.380;2023-06-22T08:19:21;151302.81;;;39.38;28.23
8280;BME280;8335;42.646;23.380;2023-06-22T08:21:49;151344.59;;;39.55;28.11
8280;BME280;8335;42.646;23.380;2023-06-22T08:24:16;151304.06;;;39.39;28.40
8280;BME280;8335;42.646;23.380;2023-06-22T08:26:42;151203.91;;;38.98;29.04
8280;BME280;8335;42.646;23.380;2023-06-22T08:29:09;150932.81;;;37.89;30.31
8280;BME280;8335;42.646;23.380;2023-06-22T08:31:36;150803.66;;;37.37;31.62
8280;BME280;8335;42.646;23.380;2023-06-22T08:34:02;150774.47;;;37.26;31.34
8280;BME280;8335;42.646;23.380;2023-06-22T08:36:29;150755.50;;;37.18;32.02
8280;BME280;8335;42.646;23.380;2023-06-22T08:38:59;150671.91;;;36.84;32.46
8280;BME280;8335;42.646;23.380;2023-06-22T08:41:26;150590.97;;;36.52;32.75
8280;BME280;8335;42.646;23.380;2023-06-22T08:43:53;150425.13;;;35.85;33.29
8280;BME280;8335;42.646;23.380;2023-06-22T08:46:20;150317.63;;;35.42;34.10
8280;BME280;8335;42.646;23.380;2023-06-22T08:48:48;150086.22;;;34.48;35.63
8280;BME280;8335;42.646;23.380;2023-06-22T08:51:15;149940.88;;;33.90;37.38
8280;BME280;8335;42.646;23.380;2023-06-22T08:53:42;150039.44;;;34.30;36.60
8280;BME280;8335;42.646;23.380;2023-06-22T08:56:11;150021.75;;;34.22;37.25
8280;BME280;8335;42.646;23.380;2023-06-22T08:58:38;150102.66;;;34.55;36.51
8280;BME280;8335;42.646;23.380;2023-06-22T09:01:05;150253.13;;;35.16;36.61
8280;BME280;8335;42.646;23.380;2023-06-22T09:03:32;150498.53;;;36.15;34.35
8280;BME280;8335;42.646;23.380;2023-06-22T09:06:01;150699.81;;;36.96;32.53
8280;BME280;8335;42.646;23.380;2023-06-22T09:08:28;150892.25;;;37.73;31.29
8280;BME280;8335;42.646;23.380;2023-06-22T09:10:55;150964.47;;;38.02;31.50
8280;BME280;8335;42.646;23.380;2023-06-22T09:13:23;151107.63;;;38.60;30.47
8280;BME280;8335;42.646;23.380;2023-06-22T09:15:50;151141.88;;;38.73;29.92
8280;BME280;8335;42.646;23.380;2023-06-22T09:18:17;151305.34;;;39.39;28.85
8280;BME280;8335;42.646;23.380;2023-06-22T09:20:45;151418.16;;;39.84;27.97
8280;BME280;8335;42.646;23.380;2023-06-22T09:23:12;151475.22;;;40.07;27.28
8280;BME280;8335;42.646;23.380;2023-06-22T09:25:38;151560.16;;;40.41;27.46
8280;BME280;8335;42.646;23.380;2023-06-22T09:28:06;151702.25;;;40.98;27.08
8280;BME280;8335;42.646;23.380;2023-06-22T09:30:34;151594.44;;;40.55;26.62
8280;BME280;8335;42.646;23.380;2023-06-22T09:33:01;151472.69;;;40.06;27.24
8280;BME280;8335;42.646;23.380;2023-06-22T09:35:27;151434.63;;;39.91;27.32
8280;BME280;8335;42.646;23.380;2023-06-22T09:37:54;151434.63;;;39.91;27.67
8280;BME280;8335;42.646;23.380;2023-06-22T09:40:21;151399.13;;;39.77;28.00
8280;BME280;8335;42.646;23.380;2023-06-22T09:42:48;151438.41;;;39.93;27.45
8280;BME280;8335;42.646;23.380;2023-06-22T09:45:14;151383.91;;;39.71;28.18
8280;BME280;8335;42.646;23.380;2023-06-22T09:47:43;151337.00;;;39.52;28.18
8280;BME280;8335;42.646;23.380;2023-06-22T09:50:10;151361.13;;;39.61;27.85
8280;BME280;8335;42.646;23.380;2023-06-22T09:52:36;151380.13;;;39.69;27.65
8280;BME280;8335;42.646;23.380;2023-06-22T09:55:04;151419.41;;;39.85;26.78
8280;BME280;8335;42.646;23.380;2023-06-22T09:57:31;151427.03;;;39.88;26.22
8280;BME280;8335;42.646;23.380;2023-06-22T09:59:59;151325.59;;;39.47;27.33
8280;BME280;8335;42.646;23.380;2023-06-22T10:02:26;151312.91;;;39.42;26.91
8280;BME280;8335;42.646;23.380;2023-06-22T10:04:54;151228.00;;;39.08;27.41
8280;BME280;8335;42.646;23.380;2023-06-22T10:07:20;151315.44;;;39.43;27.22
8280;BME280;8335;42.646;23.380;2023-06-22T10:09:48;151291.38;;;39.33;27.17
8280;BME280;8335;42.646;23.380;2023-06-22T10:12:14;151285.06;;;39.31;28.00
8280;BME280;8335;42.646;23.380;2023-06-22T10:14:41;151333.19;;;39.50;28.33
8280;BME280;8335;42.646;23.380;2023-06-22T10:17:08;151228.00;;;39.08;27.62
8280;BME280;8335;42.646;23.380;2023-06-22T10:19:35;151282.53;;;39.30;26.98
8280;BME280;8335;42.646;23.380;2023-06-22T10:22:05;151224.19;;;39.06;27.90
8280;BME280;8335;42.646;23.380;2023-06-22T10:24:32;151183.66;;;38.90;28.32
8280;BME280;8335;42.646;23.380;2023-06-22T10:26:59;151039.22;;;38.32;28.62
8280;BME280;8335;42.646;23.380;2023-06-22T10:29:26;150998.66;;;38.16;28.32
8280;BME280;8335;42.646;23.380;2023-06-22T10:31:53;151053.16;;;38.38;28.39
8280;BME280;8335;42.646;23.380;2023-06-22T10:34:19;151010.03;;;38.20;27.09
8280;BME280;8335;42.646;23.380;2023-06-22T10:36:47;150916.34;;;37.83;27.68
8280;BME280;8335;42.646;23.380;2023-06-22T10:39:15;150712.44;;;37.01;29.46
8280;BME280;8335;42.646;23.380;2023-06-22T10:41:42;150683.38;;;36.89;28.99
8280;BME280;8335;42.646;23.380;2023-06-22T10:44:09;150590.97;;;36.52;28.36
8280;BME280;8335;42.646;23.380;2023-06-22T10:46:37;150540.31;;;36.31;28.72
8280;BME280;8335;42.646;23.380;2023-06-22T10:49:04;150426.38;;;35.85;29.76
8280;BME280;8335;42.646;23.380;2023-06-22T10:51:31;150278.41;;;35.26;30.66
8280;BME280;8335;42.646;23.380;2023-06-22T10:53:59;150169.66;;;34.82;31.34
8280;BME280;8335;42.646;23.380;2023-06-22T10:56:30;150121.59;;;34.63;31.79
8280;BME280;8335;42.646;23.380;2023-06-22T10:58:59;150093.81;;;34.52;31.87
8280;BME280;8335;42.646;23.380;2023-06-22T11:01:28;150082.44;;;34.47;31.89
8280;BME280;8335;42.646;23.380;2023-06-22T11:03:56;150072.31;;;34.43;31.94
8280;BME280;8335;42.646;23.380;2023-06-22T11:06:23;149957.28;;;33.97;31.67
8280;BME280;8335;42.646;23.380;2023-06-22T11:08:51;150014.16;;;34.19;33.42
8280;BME280;8335;42.646;23.380;2023-06-22T11:11:17;149995.19;;;34.12;33.48
8280;BME280;8335;42.646;23.380;2023-06-22T11:13:46;149935.78;;;33.88;34.71
8280;BME280;8335;42.646;23.380;2023-06-22T11:16:13;149885.25;;;33.67;34.39
8280;BME280;8335;42.646;23.380;2023-06-22T11:18:39;149842.28;;;33.50;34.67
8280;BME280;8335;42.646;23.380;2023-06-22T11:21:06;149799.31;;;33.33;33.54
8280;BME280;8335;42.646;23.380;2023-06-22T11:23:33;149732.38;;;33.06;35.20
8280;BME280;8335;42.646;23.380;2023-06-22T11:26:00;149750.03;;;33.13;36.23
8280;BME280;8335;42.646;23.380;2023-06-22T11:28:27;149789.19;;;33.29;34.73
8280;BME280;8335;42.646;23.380;2023-06-22T11:30:55;149823.34;;;33.43;35.02
8280;BME280;8335;42.646;23.380;2023-06-22T11:33:22;149779.09;;;33.25;33.98
8280;BME280;8335;42.646;23.380;2023-06-22T11:35:48;149779.09;;;33.25;33.95
8280;BME280;8335;42.646;23.380;2023-06-22T11:38:15;149712.16;;;32.98;34.50
8280;BME280;8335;42.646;23.380;2023-06-22T11:40:42;149667.94;;;32.80;35.17
8280;BME280;8335;42.646;23.380;2023-06-22T11:43:09;149660.34;;;32.77;36.76
8280;BME280;8335;42.646;23.380;2023-06-22T11:45:35;149638.91;;;32.68;36.42
8280;BME280;8335;42.646;23.380;2023-06-22T11:48:04;149607.31;;;32.55;35.14
8280;BME280;8335;42.646;23.380;2023-06-22T11:50:31;149592.16;;;32.49;35.09
8280;BME280;8335;42.646;23.380;2023-06-22T11:53:01;149565.69;;;32.39;36.43
8280;BME280;8335;42.646;23.380;2023-06-22T11:55:28;149559.34;;;32.36;36.24
8280;BME280;8335;42.646;23.380;2023-06-22T11:57:56;149556.81;;;32.35;34.55
8280;BME280;8335;42.646;23.380;2023-06-22T12:00:25;149651.53;;;32.73;34.72
8280;BME280;8335;42.646;23.380;2023-06-22T12:02:52;149700.78;;;32.93;33.92
8280;BME280;8335;42.646;23.380;2023-06-22T12:05:20;149661.59;;;32.77;33.87
8280;BME280;8335;42.646;23.380;2023-06-22T12:07:48;149715.94;;;32.99;34.05
8280;BME280;8335;42.646;23.380;2023-06-22T12:10:15;149742.47;;;33.10;34.52
8280;BME280;8335;42.646;23.380;2023-06-22T12:12:42;149737.44;;;33.08;35.02
8280;BME280;8335;42.646;23.380;2023-06-22T12:15:09;149690.72;;;32.89;35.55
8280;BME280;8335;42.646;23.380;2023-06-22T12:17:37;149646.44;;;32.71;35.67
8280;BME280;8335;42.646;23.380;2023-06-22T12:20:05;149430.59;;;31.84;40.50
8280;BME280;8335;42.646;23.380;2023-06-22T12:22:34;149154.25;;;30.73;44.30
8280;BME280;8335;42.646;23.380;2023-06-22T12:25:03;149000.38;;;30.10;47.87
8280;BME280;8335;42.646;23.380;2023-06-22T12:27:30;148851.59;;;29.50;49.74
8280;BME280;8335;42.646;23.380;2023-06-22T12:29:57;148738.19;;;29.04;51.62
8280;BME280;8335;42.646;23.380;2023-06-22T12:32:23;148687.75;;;28.84;52.01
8280;BME280;8335;42.646;23.380;2023-06-22T12:34:51;148652.47;;;28.70;52.26
8280;BME280;8335;42.646;23.380;2023-06-22T12:37:17;148603.34;;;28.50;52.15
8280;BME280;8335;42.646;23.380;2023-06-22T12:39:45;148610.94;;;28.53;53.94
8280;BME280;8335;42.646;23.380;2023-06-22T12:42:12;148530.28;;;28.20;62.13
8280;BME280;8335;42.646;23.380;2023-06-22T12:44:39;148365.34;;;27.54;65.43
8280;BME280;8335;42.646;23.380;2023-06-22T12:47:06;148236.97;;;27.02;72.09
8280;BME280;8335;42.646;23.380;2023-06-22T12:49:33;148131.28;;;26.59;74.32
8280;BME280;8335;42.646;23.380;2023-06-22T12:52:00;148043.22;;;26.23;79.39
8280;BME280;8335;42.646;23.380;2023-06-22T12:54:27;147989.16;;;26.01;83.28
8280;BME280;8335;42.646;23.380;2023-06-22T12:56:56;147957.72;;;25.89;86.04
8280;BME280;8335;42.646;23.380;2023-06-22T12:59:23;147950.13;;;25.86;82.31
8280;BME280;8335;42.646;23.380;2023-06-22T13:01:49;147928.78;;;25.77;82.84